Time;durP1;ratioP1;P1;durP2;ratioP2;P2;SDS_P1;SDS_P2;PMS_P1;PMS_P2;Temp;Humidity;BMP_temperature;BMP_pressure;BME280_temperature;BME280_humidity;BME280_pressure;Samples;Min_cycle;Max_cycle;Signal;HPM_P1;HPM_P2
2023/04/30 00:01:57;;;;;;;4.93;1.70;;;;;;;;;;5090783;28;20435;-82
2023/04/30 00:04:23;;;;;;;1.80;1.13;;;;;;;;;;5063987;28;20456;-82
2023/04/30 00:06:49;;;;;;;6.43;1.37;;;;;;;;;;5054453;28;20466;-85
2023/04/30 00:09:15;;;;;;;6.17;1.70;;;;;;;;;;5054839;28;20428;-82
2023/04/30 00:11:41;;;;;;;5.80;2.30;;;;;;;;;;5087160;28;20428;-83
2023/04/30 00:14:07;;;;;;;5.47;1.33;;;;;;;;;;5087874;28;20412;-86
2023/04/30 00:16:33;;;;;;;4.77;1.87;;;;;;;;;;5077835;28;20864;-85
2023/04/30 00:18:59;;;;;;;3.40;1.50;;;;;;;;;;5074524;28;20410;-84
2023/04/30 00:21:25;;;;;;;5.00;2.10;;;;;;;;;;5069955;28;20936;-83
2023/04/30 00:23:51;;;;;;;10.17;2.30;;;;;;;;;;5072578;28;20443;-84
2023/04/30 00:26:17;;;;;;;6.80;2.03;;;;;;;;;;5089509;28;21240;-83
2023/04/30 00:28:43;;;;;;;7.70;2.30;;;;;;;;;;5076648;28;20513;-82
2023/04/30 00:31:08;;;;;;;5.33;2.40;;;;;;;;;;5077547;28;20477;-83
2023/04/30 00:33:35;;;;;;;4.70;1.93;;;;;;;;;;5091295;28;20417;-83
2023/04/30 00:36:01;;;;;;;2.17;1.10;;;;;;;;;;5091565;28;20434;-83
2023/04/30 00:38:30;;;;;;;6.50;1.73;;;;;;;;;;5095219;28;20501;-85
2023/04/30 00:40:56;;;;;;;4.57;1.40;;;;;;;;;;5067325;28;20800;-85
2023/04/30 00:43:22;;;;;;;6.80;2.60;;;;;;;;;;5094610;28;20489;-85
2023/04/30 00:45:48;;;;;;;5.70;2.50;;;;;;;;;;5069246;28;20475;-85
2023/04/30 00:48:17;;;;;;;5.47;1.70;;;;;;;;;;5057344;28;20439;-84
2023/04/30 00:50:43;;;;;;;5.30;2.10;;;;;;;;;;5076007;28;20434;-85
2023/04/30 00:53:10;;;;;;;5.17;1.93;;;;;;;;;;5091085;28;20439;-83
2023/04/30 00:55:36;;;;;;;6.23;2.63;;;;;;;;;;5080506;28;20916;-84
2023/04/30 00:58:05;;;;;;;10.30;2.17;;;;;;;;;;5095894;28;20412;-85
2023/04/30 01:00:31;;;;;;;9.93;2.53;;;;;;;;;;5059202;28;20855;-85
2023/04/30 01:02:57;;;;;;;3.37;1.70;;;;;;;;;;5058109;28;20825;-84
2023/04/30 01:05:23;;;;;;;5.10;1.83;;;;;;;;;;5076451;28;20472;-84
2023/04/30 01:07:49;;;;;;;4.33;1.30;;;;;;;;;;5093388;28;20843;-84
2023/04/30 01:10:15;;;;;;;2.87;1.80;;;;;;;;;;5095306;28;20561;-84
2023/04/30 01:12:41;;;;;;;3.80;1.50;;;;;;;;;;5076363;28;20418;-84
2023/04/30 01:15:35;;;;;;;3.70;1.73;;;;;;;;;;5081427;28;20423;-83
2023/04/30 01:18:08;;;;;;;9.63;2.87;;;;;;;;;;5091205;28;20186;-84
2023/04/30 01:20:38;;;;;;;5.80;2.00;;;;;;;;;;5092827;28;20434;-84
2023/04/30 01:23:07;;;;;;;5.17;1.77;;;;;;;;;;5076439;28;20426;-84
2023/04/30 01:25:39;;;;;;;8.80;2.17;;;;;;;;;;5076684;28;20883;-84
2023/04/30 01:28:16;;;;;;;4.90;2.17;;;;;;;;;;5092356;28;20469;-83
2023/04/30 01:30:45;;;;;;;5.80;2.43;;;;;;;;;;5090660;28;20442;-83
2023/04/30 01:33:14;;;;;;;3.67;1.80;;;;;;;;;;5090306;28;20436;-83
2023/04/30 01:35:49;;;;;;;4.10;1.67;;;;;;;;;;5074791;28;20395;-83
2023/04/30 01:38:17;;;;;;;3.97;2.30;;;;;;;;;;5077283;28;20931;-84
2023/04/30 01:40:55;;;;;;;5.60;2.03;;;;;;;;;;5094404;28;20403;-83
2023/04/30 01:43:21;;;;;;;4.37;1.80;;;;;;;;;;5091342;28;20432;-85
2023/04/30 01:46:05;;;;;;;2.93;1.50;;;;;;;;;;5074683;28;20451;-84
2023/04/30 01:48:31;;;;;;;4.87;1.70;;;;;;;;;;5093398;28;20478;-87
2023/04/30 01:51:24;;;;;;;3.40;1.63;;;;;;;;;;5076590;28;20621;-85
2023/04/30 01:53:54;;;;;;;5.50;2.80;;;;;;;;;;5089609;28;20434;-85
2023/04/30 01:56:31;;;;;;;4.40;1.43;;;;;;;;;;5076709;28;20418;-85
2023/04/30 01:59:01;;;;;;;3.57;1.77;;;;;;;;;;5087118;28;20858;-85
2023/04/30 02:01:31;;;;;;;6.70;2.53;;;;;;;;;;5074077;28;20477;-84
2023/04/30 02:03:58;;;;;;;5.43;1.23;;;;;;;;;;5080274;28;20437;-84
2023/04/30 02:06:28;;;;;;;3.70;1.47;;;;;;;;;;5094431;28;21013;-85
2023/04/30 02:08:55;;;;;;;4.63;2.30;;;;;;;;;;5088578;28;20842;-85
2023/04/30 02:11:27;;;;;;;6.53;2.20;;;;;;;;;;5089749;28;20423;-85
2023/04/30 02:13:53;;;;;;;3.80;2.57;;;;;;;;;;5092943;28;20994;-84
2023/04/30 02:16:22;;;;;;;4.97;1.90;;;;;;;;;;5094033;28;20417;-84
2023/04/30 02:18:48;;;;;;;4.17;1.77;;;;;;;;;;5092503;28;20514;-85
2023/04/30 02:21:17;;;;;;;6.20;1.80;;;;;;;;;;5094353;28;20820;-84
2023/04/30 02:23:43;;;;;;;6.27;2.27;;;;;;;;;;5086573;28;20954;-84
2023/04/30 02:26:09;;;;;;;4.47;2.23;;;;;;;;;;5089603;28;20558;-86
2023/04/30 02:28:35;;;;;;;3.53;1.50;;;;;;;;;;5048964;28;20459;-84
2023/04/30 02:31:01;;;;;;;6.07;2.33;;;;;;;;;;5083679;28;20869;-84
2023/04/30 02:33:27;;;;;;;5.03;2.00;;;;;;;;;;5077597;28;20422;-84
2023/04/30 02:35:54;;;;;;;5.90;2.50;;;;;;;;;;5075776;28;20426;-85
2023/04/30 02:38:20;;;;;;;6.27;2.10;;;;;;;;;;5092485;28;20442;-84
2023/04/30 02:40:45;;;;;;;5.80;1.97;;;;;;;;;;5075754;28;20495;-85
2023/04/30 02:43:11;;;;;;;4.50;1.90;;;;;;;;;;5075409;28;20438;-85
2023/04/30 02:45:37;;;;;;;4.10;1.83;;;;;;;;;;5075693;28;20481;-84
2023/04/30 02:48:03;;;;;;;6.30;2.47;;;;;;;;;;5073552;28;20491;-84
2023/04/30 02:50:29;;;;;;;4.57;2.10;;;;;;;;;;5073035;28;20412;-84
2023/04/30 02:52:55;;;;;;;8.20;3.50;;;;;;;;;;5073083;28;20414;-85
2023/04/30 02:55:21;;;;;;;4.13;2.20;;;;;;;;;;5092254;28;20441;-85
2023/04/30 02:57:47;;;;;;;3.93;2.03;;;;;;;;;;5075522;28;20939;-84
2023/04/30 03:00:13;;;;;;;8.37;2.03;;;;;;;;;;5092914;28;20426;-84
2023/04/30 03:02:39;;;;;;;8.63;2.07;;;;;;;;;;5075035;28;20923;-84
2023/04/30 03:05:05;;;;;;;5.13;2.10;;;;;;;;;;5058351;28;20455;-84
2023/04/30 03:07:31;;;;;;;7.60;2.23;;;;;;;;;;5087596;28;20433;-84
2023/04/30 03:09:57;;;;;;;3.93;2.00;;;;;;;;;;5070940;28;20426;-84
2023/04/30 03:12:23;;;;;;;3.60;2.80;;;;;;;;;;5055205;28;20422;-84
2023/04/30 03:14:49;;;;;;;2.97;2.07;;;;;;;;;;5072177;28;20422;-82
2023/04/30 03:17:15;;;;;;;2.93;1.40;;;;;;;;;;5074745;28;20418;-84
2023/04/30 03:19:41;;;;;;;5.80;1.57;;;;;;;;;;5077759;28;20426;-85
2023/04/30 03:22:07;;;;;;;12.83;2.90;;;;;;;;;;5075190;28;20434;-83
2023/04/30 03:24:33;;;;;;;6.07;2.23;;;;;;;;;;5092349;28;20426;-84
2023/04/30 03:27:00;;;;;;;3.07;2.10;;;;;;;;;;5074430;28;20418;-82
2023/04/30 03:29:26;;;;;;;2.60;1.10;;;;;;;;;;5091210;28;20426;-84
2023/04/30 03:31:52;;;;;;;3.97;2.00;;;;;;;;;;5074629;28;20419;-84
2023/04/30 03:34:18;;;;;;;5.03;2.50;;;;;;;;;;5063343;28;20442;-85
2023/04/30 03:36:44;;;;;;;3.30;1.97;;;;;;;;;;5054912;28;20777;-85
2023/04/30 03:39:10;;;;;;;3.80;2.00;;;;;;;;;;5064419;28;20951;-86
2023/04/30 03:41:36;;;;;;;6.83;2.90;;;;;;;;;;5075080;28;20505;-85
2023/04/30 03:44:02;;;;;;;5.27;2.67;;;;;;;;;;5074700;28;20448;-85
2023/04/30 03:46:28;;;;;;;5.30;2.47;;;;;;;;;;5074523;28;20481;-85
2023/04/30 03:48:54;;;;;;;3.63;2.40;;;;;;;;;;5067975;28;20794;-84
2023/04/30 03:51:20;;;;;;;4.90;2.47;;;;;;;;;;5072665;28;20411;-85
2023/04/30 03:53:46;;;;;;;3.43;1.97;;;;;;;;;;5055812;28;20488;-85
2023/04/30 03:56:12;;;;;;;4.47;1.43;;;;;;;;;;5072666;28;20421;-85
2023/04/30 03:58:38;;;;;;;5.13;2.93;;;;;;;;;;5077925;28;20449;-84
2023/04/30 04:01:04;;;;;;;4.93;2.83;;;;;;;;;;5090900;28;20430;-85
2023/04/30 04:03:31;;;;;;;5.27;2.70;;;;;;;;;;5073613;28;20467;-86
2023/04/30 04:05:56;;;;;;;3.03;2.50;;;;;;;;;;5087218;28;20595;-85
2023/04/30 04:08:22;;;;;;;6.10;3.10;;;;;;;;;;5078835;28;20414;-86
2023/04/30 04:10:48;;;;;;;6.77;2.90;;;;;;;;;;5096601;28;20781;-86
2023/04/30 04:13:14;;;;;;;9.20;3.20;;;;;;;;;;5096721;28;20414;-85
2023/04/30 04:15:40;;;;;;;2.87;1.80;;;;;;;;;;5094757;28;20410;-85
2023/04/30 04:18:07;;;;;;;3.70;1.90;;;;;;;;;;5096849;28;20767;-84
2023/04/30 04:20:33;;;;;;;6.23;3.20;;;;;;;;;;5095773;28;20501;-85
2023/04/30 04:22:59;;;;;;;4.10;1.80;;;;;;;;;;5076113;28;20513;-84
2023/04/30 04:25:26;;;;;;;4.47;2.00;;;;;;;;;;5076124;28;20458;-84
2023/04/30 04:27:52;;;;;;;3.80;2.30;;;;;;;;;;5095196;28;20560;-84
2023/04/30 04:30:18;;;;;;;7.03;3.67;;;;;;;;;;5078212;28;20438;-83
2023/04/30 04:32:50;;;;;;;7.27;2.53;;;;;;;;;;5077956;28;20801;-83
2023/04/30 04:35:18;;;;;;;4.93;2.10;;;;;;;;;;5058139;28;20783;-83
2023/04/30 04:37:44;;;;;;;4.07;2.30;;;;;;;;;;5074873;28;20934;-84
2023/04/30 04:40:11;;;;;;;4.30;2.03;;;;;;;;;;5077930;28;20419;-84
2023/04/30 04:42:40;;;;;;;6.33;3.57;;;;;;;;;;5058266;28;20901;-84
2023/04/30 04:45:07;;;;;;;6.00;3.13;;;;;;;;;;5057869;28;20488;-83
2023/04/30 04:47:33;;;;;;;5.23;2.33;;;;;;;;;;5076053;28;20975;-86
2023/04/30 04:49:59;;;;;;;5.43;2.67;;;;;;;;;;5096258;28;20405;-84
2023/04/30 04:52:25;;;;;;;5.60;3.00;;;;;;;;;;5060232;28;20442;-84
2023/04/30 04:54:51;;;;;;;4.87;2.70;;;;;;;;;;5057785;28;20410;-84
2023/04/30 04:57:17;;;;;;;5.30;2.70;;;;;;;;;;5072884;28;20436;-84
2023/04/30 04:59:43;;;;;;;7.63;2.63;;;;;;;;;;5077785;28;20398;-84
2023/04/30 05:02:09;;;;;;;4.80;2.03;;;;;;;;;;5081378;28;20753;-85
2023/04/30 05:04:35;;;;;;;4.40;2.30;;;;;;;;;;5057556;28;20453;-85
2023/04/30 05:07:01;;;;;;;5.50;2.83;;;;;;;;;;5061067;28;20478;-84
2023/04/30 05:09:27;;;;;;;6.70;3.27;;;;;;;;;;5057460;28;20422;-84
2023/04/30 05:11:52;;;;;;;5.47;2.90;;;;;;;;;;5073844;28;20462;-83
2023/04/30 05:14:19;;;;;;;7.07;3.23;;;;;;;;;;5076918;28;20821;-84
2023/04/30 05:16:46;;;;;;;8.33;3.90;;;;;;;;;;5069047;28;20473;-83
2023/04/30 05:19:12;;;;;;;5.13;3.20;;;;;;;;;;5057162;28;20428;-84
2023/04/30 05:21:39;;;;;;;8.83;4.77;;;;;;;;;;5067437;28;20936;-83
2023/04/30 05:24:05;;;;;;;7.07;3.40;;;;;;;;;;5095529;28;20750;-83
2023/04/30 05:26:30;;;;;;;13.40;3.40;;;;;;;;;;5094620;28;20476;-84
2023/04/30 05:28:56;;;;;;;8.37;3.57;;;;;;;;;;5072921;28;20549;-84
2023/04/30 05:31:22;;;;;;;8.60;4.37;;;;;;;;;;5072090;28;20428;-85
2023/04/30 05:33:48;;;;;;;10.13;3.97;;;;;;;;;;5065722;28;20466;-85
2023/04/30 05:36:14;;;;;;;4.73;3.20;;;;;;;;;;5076933;28;20562;-85
2023/04/30 05:38:41;;;;;;;6.53;3.13;;;;;;;;;;5082268;28;20508;-85
2023/04/30 05:41:07;;;;;;;7.00;2.43;;;;;;;;;;5073531;28;20999;-86
2023/04/30 05:43:33;;;;;;;5.27;3.10;;;;;;;;;;5081056;28;20423;-85
2023/04/30 05:45:59;;;;;;;5.03;3.00;;;;;;;;;;5094641;28;20877;-86
2023/04/30 05:48:26;;;;;;;8.90;3.10;;;;;;;;;;5067738;28;20991;-85
2023/04/30 05:50:52;;;;;;;14.00;3.53;;;;;;;;;;5074697;28;20925;-85
2023/04/30 05:53:18;;;;;;;8.53;3.13;;;;;;;;;;5073252;28;20418;-86
2023/04/30 05:55:44;;;;;;;7.47;3.17;;;;;;;;;;5076001;28;20439;-86
2023/04/30 05:58:10;;;;;;;14.50;4.23;;;;;;;;;;5062922;28;20426;-84
2023/04/30 06:00:36;;;;;;;6.50;2.63;;;;;;;;;;5066942;28;20829;-83
2023/04/30 06:03:02;;;;;;;6.10;2.50;;;;;;;;;;5089505;28;20924;-83
2023/04/30 06:05:28;;;;;;;4.43;2.30;;;;;;;;;;5093023;28;20452;-83
2023/04/30 06:07:54;;;;;;;5.50;3.80;;;;;;;;;;5076372;28;20411;-83
2023/04/30 06:10:20;;;;;;;6.33;2.70;;;;;;;;;;5076420;28;20178;-83
2023/04/30 06:12:46;;;;;;;5.10;2.40;;;;;;;;;;5094146;28;20418;-83
2023/04/30 06:15:12;;;;;;;4.40;2.50;;;;;;;;;;5093287;28;20418;-82
2023/04/30 06:17:38;;;;;;;3.80;2.10;;;;;;;;;;5070402;28;20762;-83
2023/04/30 06:20:05;;;;;;;7.10;3.43;;;;;;;;;;5056111;28;20179;-83
2023/04/30 06:22:31;;;;;;;6.67;2.47;;;;;;;;;;5074053;28;20445;-84
2023/04/30 06:24:57;;;;;;;5.23;2.70;;;;;;;;;;5073152;28;20493;-84
2023/04/30 06:27:26;;;;;;;8.90;2.30;;;;;;;;;;5073528;28;21104;-84
2023/04/30 06:29:52;;;;;;;4.87;3.10;;;;;;;;;;5074020;28;20170;-82
2023/04/30 06:32:18;;;;;;;4.93;1.73;;;;;;;;;;5073468;28;20763;-83
2023/04/30 06:34:44;;;;;;;5.80;1.73;;;;;;;;;;5056727;28;20404;-85
2023/04/30 06:37:10;;;;;;;4.57;1.90;;;;;;;;;;5093664;28;20192;-84
2023/04/30 06:39:36;;;;;;;7.40;2.70;;;;;;;;;;5089193;28;20585;-84
2023/04/30 06:42:02;;;;;;;4.00;1.90;;;;;;;;;;5075063;28;20180;-85
2023/04/30 06:44:28;;;;;;;3.20;0.93;;;;;;;;;;5073601;28;20227;-84
2023/04/30 06:46:54;;;;;;;5.53;2.40;;;;;;;;;;5054995;28;20483;-83
2023/04/30 06:49:20;;;;;;;5.10;1.83;;;;;;;;;;5085817;28;20643;-84
2023/04/30 06:51:46;;;;;;;5.63;1.37;;;;;;;;;;5073484;28;20415;-85
2023/04/30 06:54:13;;;;;;;3.90;1.23;;;;;;;;;;5073426;28;20177;-84
2023/04/30 06:56:39;;;;;;;1.83;0.97;;;;;;;;;;5055512;28;20271;-82
2023/04/30 06:59:05;;;;;;;2.43;0.87;;;;;;;;;;5067425;28;20850;-83
2023/04/30 07:01:31;;;;;;;2.93;1.10;;;;;;;;;;5055037;28;20428;-82
2023/04/30 07:03:57;;;;;;;3.10;1.03;;;;;;;;;;5073220;28;20510;-86
2023/04/30 07:06:23;;;;;;;4.30;1.60;;;;;;;;;;5074751;28;20878;-82
2023/04/30 07:08:49;;;;;;;3.27;1.20;;;;;;;;;;5073320;28;20403;-79
2023/04/30 07:11:14;;;;;;;5.70;1.23;;;;;;;;;;5043786;28;20430;-82
2023/04/30 07:13:40;;;;;;;5.83;0.80;;;;;;;;;;5057678;28;20441;-83
2023/04/30 07:16:09;;;;;;;2.70;1.30;;;;;;;;;;5082924;28;20256;-82
2023/04/30 07:18:35;;;;;;;4.13;0.93;;;;;;;;;;5081099;28;20411;-82
2023/04/30 07:21:01;;;;;;;4.90;1.63;;;;;;;;;;5073089;28;20552;-82
2023/04/30 07:23:27;;;;;;;4.70;1.77;;;;;;;;;;5073024;28;20407;-82
2023/04/30 07:25:52;;;;;;;2.67;0.70;;;;;;;;;;5072992;28;20217;-82
2023/04/30 07:28:19;;;;;;;3.63;0.90;;;;;;;;;;5072825;28;20221;-82
2023/04/30 07:30:45;;;;;;;4.43;1.13;;;;;;;;;;5072496;28;20265;-82
2023/04/30 07:33:11;;;;;;;6.03;1.10;;;;;;;;;;5072954;28;20958;-82
2023/04/30 07:35:37;;;;;;;3.53;1.00;;;;;;;;;;5072865;28;20183;-82
2023/04/30 07:38:04;;;;;;;5.13;1.00;;;;;;;;;;5072822;28;20744;-82
2023/04/30 07:40:30;;;;;;;3.67;1.50;;;;;;;;;;5072987;28;20484;-82
2023/04/30 07:42:56;;;;;;;2.10;0.77;;;;;;;;;;5072862;28;20415;-82
2023/04/30 07:45:22;;;;;;;3.87;0.80;;;;;;;;;;5072393;28;20737;-82
2023/04/30 07:47:48;;;;;;;7.20;1.37;;;;;;;;;;5054753;28;20929;-82
2023/04/30 07:50:14;;;;;;;5.87;2.20;;;;;;;;;;5054780;28;20673;-82
2023/04/30 07:52:41;;;;;;;4.93;0.90;;;;;;;;;;5054814;28;20441;-82
2023/04/30 07:55:07;;;;;;;2.00;0.90;;;;;;;;;;5054754;28;20457;-83
2023/04/30 07:57:33;;;;;;;3.63;1.27;;;;;;;;;;5072753;28;20470;-82
2023/04/30 07:59:59;;;;;;;4.30;0.97;;;;;;;;;;5054481;28;20986;-82
2023/04/30 08:02:25;;;;;;;4.37;1.03;;;;;;;;;;5054767;28;20177;-83
2023/04/30 08:04:51;;;;;;;1.00;0.70;;;;;;;;;;5072537;28;20821;-83
2023/04/30 08:07:17;;;;;;;4.93;1.30;;;;;;;;;;5087766;28;20271;-83
2023/04/30 08:09:43;;;;;;;6.50;1.73;;;;;;;;;;5087870;28;20180;-83
2023/04/30 08:12:10;;;;;;;5.87;1.40;;;;;;;;;;5054702;28;20223;-83
2023/04/30 08:14:36;;;;;;;1.83;0.87;;;;;;;;;;5072471;28;20515;-82
2023/04/30 08:17:02;;;;;;;3.00;1.33;;;;;;;;;;5078336;28;20476;-82
2023/04/30 08:19:28;;;;;;;4.33;0.90;;;;;;;;;;5092440;28;20476;-82
2023/04/30 08:21:54;;;;;;;3.00;1.47;;;;;;;;;;5084054;28;20509;-83
2023/04/30 08:24:20;;;;;;;3.50;1.13;;;;;;;;;;5088731;28;20565;-83
2023/04/30 08:26:46;;;;;;;3.13;1.10;;;;;;;;;;5085078;28;20477;-82
2023/04/30 08:29:12;;;;;;;2.87;0.90;;;;;;;;;;5054369;28;20514;-84
2023/04/30 08:31:38;;;;;;;2.23;1.07;;;;;;;;;;5074780;28;20430;-82
2023/04/30 08:34:04;;;;;;;5.53;1.60;;;;;;;;;;5035960;28;20430;-83
2023/04/30 08:36:30;;;;;;;4.67;1.20;;;;;;;;;;5073527;28;20487;-81
2023/04/30 08:38:56;;;;;;;3.30;1.47;;;;;;;;;;5092628;28;20172;-82
2023/04/30 08:41:25;;;;;;;2.70;1.07;;;;;;;;;;5066214;28;20930;-84
2023/04/30 08:43:52;;;;;;;2.47;0.77;;;;;;;;;;5054067;28;21047;-83
2023/04/30 08:46:19;;;;;;;7.77;1.53;;;;;;;;;;5071719;28;20477;-83
2023/04/30 08:48:47;;;;;;;3.87;1.37;;;;;;;;;;5073083;28;20411;-83
2023/04/30 08:51:13;;;;;;;4.77;1.83;;;;;;;;;;5058070;28;20418;-82
2023/04/30 08:53:39;;;;;;;3.23;1.07;;;;;;;;;;5057902;28;20434;-83
2023/04/30 08:56:05;;;;;;;3.67;1.47;;;;;;;;;;5057882;28;20423;-84
2023/04/30 08:58:31;;;;;;;2.17;0.90;;;;;;;;;;5057884;28;20419;-83
2023/04/30 09:01:01;;;;;;;3.63;1.40;;;;;;;;;;5057462;28;20431;-83
2023/04/30 09:03:27;;;;;;;4.73;1.20;;;;;;;;;;5058214;28;20438;-82
2023/04/30 09:05:55;;;;;;;5.70;1.20;;;;;;;;;;5057599;28;20509;-83
2023/04/30 09:08:40;;;;;;;3.20;1.33;;;;;;;;;;5075644;28;20414;-83
2023/04/30 09:11:20;;;;;;;5.20;1.37;;;;;;;;;;5078353;28;20434;-83
2023/04/30 09:13:46;;;;;;;2.40;1.37;;;;;;;;;;5088400;28;20425;-83
2023/04/30 09:16:13;;;;;;;5.33;1.20;;;;;;;;;;5081879;28;20451;-86
2023/04/30 09:18:39;;;;;;;1.77;1.57;;;;;;;;;;5067908;28;20414;-89
2023/04/30 09:21:07;;;;;;;1.90;0.87;;;;;;;;;;5087473;28;20419;-82
2023/04/30 09:23:33;;;;;;;3.07;0.97;;;;;;;;;;5086533;28;20450;-91
2023/04/30 09:25:59;;;;;;;7.27;1.07;;;;;;;;;;5079710;28;20471;-89
2023/04/30 09:28:27;;;;;;;2.83;1.23;;;;;;;;;;5085434;28;20531;-86
2023/04/30 09:30:55;;;;;;;2.93;1.20;;;;;;;;;;5086015;28;20422;-86
2023/04/30 09:33:21;;;;;;;4.13;1.70;;;;;;;;;;5068083;28;20540;-86
2023/04/30 09:35:47;;;;;;;2.10;1.23;;;;;;;;;;5085227;28;20452;-85
2023/04/30 09:38:32;;;;;;;4.80;1.30;;;;;;;;;;5083951;28;20184;-87
2023/04/30 09:41:00;;;;;;;4.90;1.40;;;;;;;;;;5086030;28;20773;-89
2023/04/30 09:43:30;;;;;;;2.93;1.33;;;;;;;;;;5067187;28;20411;-86
2023/04/30 09:45:57;;;;;;;4.47;1.97;;;;;;;;;;5066597;28;20535;-81
2023/04/30 09:48:26;;;;;;;4.80;1.77;;;;;;;;;;5066563;28;21342;-82
2023/04/30 09:50:52;;;;;;;3.20;1.00;;;;;;;;;;5083311;28;20404;-83
2023/04/30 09:53:19;;;;;;;4.40;1.17;;;;;;;;;;5084161;28;20402;-83
2023/04/30 09:55:46;;;;;;;2.97;1.07;;;;;;;;;;5066956;28;20177;-83
2023/04/30 09:58:13;;;;;;;2.53;0.83;;;;;;;;;;5064321;28;20433;-82
2023/04/30 10:00:39;;;;;;;5.77;1.50;;;;;;;;;;5083663;28;20420;-84
2023/04/30 10:03:07;;;;;;;4.07;1.43;;;;;;;;;;5083016;28;20449;-82
2023/04/30 10:05:36;;;;;;;3.60;1.50;;;;;;;;;;5066332;28;21063;-83
2023/04/30 10:08:02;;;;;;;5.10;1.30;;;;;;;;;;5084337;28;20407;-82
2023/04/30 10:10:29;;;;;;;3.83;1.33;;;;;;;;;;5062841;28;20933;-83
2023/04/30 10:13:00;;;;;;;2.00;0.70;;;;;;;;;;5084288;28;20411;-83
2023/04/30 10:15:30;;;;;;;4.53;1.73;;;;;;;;;;5065981;28;20477;-82
2023/04/30 10:18:04;;;;;;;3.83;1.70;;;;;;;;;;5080241;28;20418;-82
2023/04/30 10:20:31;;;;;;;4.80;2.13;;;;;;;;;;5084651;28;20411;-82
2023/04/30 10:22:57;;;;;;;3.00;1.50;;;;;;;;;;5073997;28;20414;-83
2023/04/30 10:25:25;;;;;;;3.23;1.33;;;;;;;;;;5093938;28;20411;-82
2023/04/30 10:27:51;;;;;;;3.50;1.40;;;;;;;;;;5093824;28;20870;-82
2023/04/30 10:30:17;;;;;;;4.23;1.20;;;;;;;;;;5093796;28;20411;-81
2023/04/30 10:32:50;;;;;;;3.10;1.50;;;;;;;;;;5091900;28;20261;-81
2023/04/30 10:35:23;;;;;;;2.57;1.00;;;;;;;;;;5089095;28;20523;-82
2023/04/30 10:37:53;;;;;;;7.10;1.50;;;;;;;;;;5075001;28;20521;-81
2023/04/30 10:40:19;;;;;;;3.07;1.17;;;;;;;;;;5093862;28;20399;-82
2023/04/30 10:42:46;;;;;;;2.20;1.20;;;;;;;;;;5084720;28;20422;-82
2023/04/30 10:45:13;;;;;;;7.80;2.13;;;;;;;;;;5064515;28;20421;-83
2023/04/30 10:47:47;;;;;;;7.13;1.93;;;;;;;;;;5065760;28;20427;-82
2023/04/30 10:50:12;;;;;;;4.57;1.73;;;;;;;;;;5064022;28;20417;-86
2023/04/30 10:52:39;;;;;;;4.17;1.63;;;;;;;;;;5065330;28;20407;-83
2023/04/30 10:55:06;;;;;;;2.67;1.37;;;;;;;;;;5081914;28;20495;-83
2023/04/30 10:57:39;;;;;;;3.30;1.63;;;;;;;;;;5061483;28;20434;-82
2023/04/30 11:00:18;;;;;;;2.63;1.53;;;;;;;;;;5063648;28;20468;-85
2023/04/30 11:02:47;;;;;;;3.53;1.30;;;;;;;;;;5086078;28;20422;-84
2023/04/30 11:05:21;;;;;;;4.00;1.30;;;;;;;;;;5081795;28;20400;-84
2023/04/30 11:07:57;;;;;;;1.77;1.30;;;;;;;;;;5064645;28;20894;-83
2023/04/30 11:10:33;;;;;;;4.03;1.90;;;;;;;;;;5067449;28;20450;-84
2023/04/30 11:13:03;;;;;;;3.20;1.87;;;;;;;;;;5046814;28;20453;-83
2023/04/30 11:15:40;;;;;;;4.20;1.30;;;;;;;;;;5083575;28;20881;-85
2023/04/30 11:18:07;;;;;;;4.40;1.50;;;;;;;;;;5066382;28;20419;-82
2023/04/30 11:20:33;;;;;;;3.87;1.30;;;;;;;;;;5063696;28;20410;-83
2023/04/30 11:23:12;;;;;;;3.20;1.90;;;;;;;;;;5065119;28;20426;-82
2023/04/30 11:25:45;;;;;;;4.03;2.00;;;;;;;;;;5063645;28;20441;-85
2023/04/30 11:28:19;;;;;;;5.43;1.70;;;;;;;;;;5062490;28;20506;-84
2023/04/30 11:31:14;;;;;;;2.30;1.43;;;;;;;;;;5063191;28;20525;-83
2023/04/30 11:33:45;;;;;;;4.67;1.50;;;;;;;;;;5079652;28;20434;-83
2023/04/30 11:36:11;;;;;;;3.10;1.23;;;;;;;;;;5063112;28;20499;-82
2023/04/30 11:38:37;;;;;;;4.23;1.50;;;;;;;;;;5065164;28;20441;-82
2023/04/30 11:41:03;;;;;;;3.33;1.67;;;;;;;;;;5082526;28;20172;-83
2023/04/30 11:43:33;;;;;;;3.43;1.20;;;;;;;;;;5063269;28;20425;-82
2023/04/30 11:46:10;;;;;;;3.03;1.80;;;;;;;;;;5048698;28;20451;-83
2023/04/30 11:48:41;;;;;;;4.23;1.90;;;;;;;;;;5062524;28;20421;-83
2023/04/30 11:51:20;;;;;;;4.80;1.67;;;;;;;;;;5064464;28;20419;-82
2023/04/30 11:53:47;;;;;;;3.07;1.67;;;;;;;;;;5084024;28;20413;-84
2023/04/30 11:56:13;;;;;;;3.20;1.40;;;;;;;;;;5062996;28;20471;-83
2023/04/30 11:58:40;;;;;;;2.50;1.60;;;;;;;;;;5066201;28;20430;-83
2023/04/30 12:01:10;;;;;;;3.93;1.67;;;;;;;;;;5080351;28;20472;-81
2023/04/30 12:03:46;;;;;;;4.77;2.20;;;;;;;;;;5065049;28;21015;-82
2023/04/30 12:06:20;;;;;;;6.30;2.00;;;;;;;;;;5065072;28;20485;-83
2023/04/30 12:08:46;;;;;;;4.13;1.43;;;;;;;;;;5064682;28;20427;-82
2023/04/30 12:11:19;;;;;;;4.93;1.73;;;;;;;;;;5063038;28;20412;-82
2023/04/30 12:13:50;;;;;;;3.97;1.53;;;;;;;;;;5081149;28;20414;-84
2023/04/30 12:16:16;;;;;;;5.07;2.10;;;;;;;;;;5065457;28;21017;-82
2023/04/30 12:18:43;;;;;;;5.50;1.80;;;;;;;;;;5063776;28;20410;-82
2023/04/30 12:21:09;;;;;;;2.20;1.17;;;;;;;;;;5064739;28;20627;-82
2023/04/30 12:23:40;;;;;;;3.80;1.70;;;;;;;;;;5079820;28;20956;-83
2023/04/30 12:26:06;;;;;;;4.30;1.97;;;;;;;;;;5086392;28;20399;-84
2023/04/30 12:28:34;;;;;;;2.90;1.00;;;;;;;;;;5084073;28;20459;-83
2023/04/30 12:31:01;;;;;;;2.13;1.23;;;;;;;;;;5067649;28;20407;-83
2023/04/30 12:33:31;;;;;;;3.37;1.70;;;;;;;;;;5068884;28;20418;-83
2023/04/30 12:35:58;;;;;;;3.60;1.80;;;;;;;;;;5065805;28;20465;-82
2023/04/30 12:38:29;;;;;;;4.17;1.50;;;;;;;;;;5086302;28;20474;-82
2023/04/30 12:40:56;;;;;;;3.67;2.00;;;;;;;;;;5065527;28;20415;-86
2023/04/30 12:43:23;;;;;;;2.90;1.93;;;;;;;;;;5083806;28;20426;-87
2023/04/30 12:45:53;;;;;;;3.87;1.70;;;;;;;;;;5075008;28;20422;-82
2023/04/30 12:48:23;;;;;;;3.50;1.63;;;;;;;;;;5075937;28;20418;-82
2023/04/30 12:50:52;;;;;;;1.57;1.37;;;;;;;;;;5077438;28;20468;-81
2023/04/30 12:53:18;;;;;;;3.67;1.10;;;;;;;;;;5095922;28;20464;-82
2023/04/30 12:56:04;;;;;;;2.20;1.23;;;;;;;;;;5095689;28;20461;-82
2023/04/30 12:58:30;;;;;;;3.77;1.73;;;;;;;;;;5095182;28;20464;-81
2023/04/30 13:00:58;;;;;;;3.63;1.20;;;;;;;;;;5095488;28;20879;-82
2023/04/30 13:03:24;;;;;;;3.73;1.77;;;;;;;;;;5095341;28;20192;-82
2023/04/30 13:05:50;;;;;;;2.80;1.30;;;;;;;;;;5095604;28;20437;-82
2023/04/30 13:08:17;;;;;;;4.33;1.47;;;;;;;;;;5095617;28;20417;-81
2023/04/30 13:10:44;;;;;;;2.17;1.67;;;;;;;;;;5088435;28;20406;-81
2023/04/30 13:13:10;;;;;;;2.50;1.67;;;;;;;;;;5083010;28;20462;-83
2023/04/30 13:15:36;;;;;;;4.50;2.10;;;;;;;;;;5064247;28;20871;-82
2023/04/30 13:18:02;;;;;;;3.77;2.30;;;;;;;;;;5068028;28;20418;-82
2023/04/30 13:20:28;;;;;;;3.70;1.83;;;;;;;;;;5084590;28;20897;-83
2023/04/30 13:22:57;;;;;;;3.33;1.53;;;;;;;;;;5084592;28;20165;-85
2023/04/30 13:25:23;;;;;;;2.73;2.03;;;;;;;;;;5066624;28;20431;-83
2023/04/30 13:27:50;;;;;;;2.40;1.33;;;;;;;;;;5049771;28;20521;-84
2023/04/30 13:30:20;;;;;;;3.10;1.60;;;;;;;;;;5081758;28;20652;-85
2023/04/30 13:32:48;;;;;;;2.97;1.50;;;;;;;;;;5082683;28;20419;-84
2023/04/30 13:35:19;;;;;;;4.57;2.13;;;;;;;;;;5065719;28;20495;-82
2023/04/30 13:37:47;;;;;;;2.90;1.30;;;;;;;;;;5067497;28;20426;-84
2023/04/30 13:40:19;;;;;;;5.60;2.20;;;;;;;;;;5066373;28;20430;-83
2023/04/30 13:42:51;;;;;;;3.40;2.00;;;;;;;;;;5064538;28;20419;-83
2023/04/30 13:45:21;;;;;;;4.17;1.90;;;;;;;;;;5065356;28;20862;-85
2023/04/30 13:47:48;;;;;;;4.90;2.47;;;;;;;;;;5065400;28;20451;-82
2023/04/30 13:50:14;;;;;;;3.80;1.10;;;;;;;;;;5066559;28;20458;-83
2023/04/30 13:52:41;;;;;;;2.80;1.43;;;;;;;;;;5067810;28;20928;-83
2023/04/30 13:55:08;;;;;;;4.23;1.53;;;;;;;;;;5065551;28;20403;-82
2023/04/30 13:57:34;;;;;;;3.27;1.70;;;;;;;;;;5065330;28;20437;-82
2023/04/30 14:00:01;;;;;;;3.83;1.10;;;;;;;;;;5066909;28;20409;-80
2023/04/30 14:02:27;;;;;;;3.77;1.53;;;;;;;;;;5083452;28;20431;-84
2023/04/30 14:04:53;;;;;;;3.40;2.03;;;;;;;;;;5083995;28;20821;-84
2023/04/30 14:07:21;;;;;;;4.43;1.90;;;;;;;;;;5084563;28;20993;-82
2023/04/30 14:09:47;;;;;;;8.20;2.10;;;;;;;;;;5060769;28;20901;-83
2023/04/30 14:12:24;;;;;;;7.90;1.70;;;;;;;;;;5059937;28;20431;-82
2023/04/30 14:14:50;;;;;;;4.80;1.30;;;;;;;;;;5094324;28;20411;-84
2023/04/30 14:17:18;;;;;;;7.37;2.30;;;;;;;;;;5076035;28;20576;-82
2023/04/30 14:19:44;;;;;;;2.90;1.97;;;;;;;;;;5076382;28;20498;-84
2023/04/30 14:22:10;;;;;;;5.17;1.37;;;;;;;;;;5059984;28;20426;-84
2023/04/30 14:24:43;;;;;;;3.80;1.33;;;;;;;;;;5075111;28;20463;-82
2023/04/30 14:27:10;;;;;;;3.37;1.60;;;;;;;;;;5072048;28;20438;-82
2023/04/30 14:29:36;;;;;;;6.13;1.67;;;;;;;;;;5065218;28;20481;-81
2023/04/30 14:32:03;;;;;;;5.33;2.30;;;;;;;;;;5066706;28;20996;-81
2023/04/30 14:34:28;;;;;;;2.87;1.50;;;;;;;;;;5064673;28;20413;-82
2023/04/30 14:36:58;;;;;;;3.67;1.43;;;;;;;;;;5066193;28;20469;-81
2023/04/30 14:39:24;;;;;;;6.33;1.53;;;;;;;;;;5066876;28;20169;-80
2023/04/30 14:41:50;;;;;;;5.23;2.03;;;;;;;;;;5064609;28;20503;-82
2023/04/30 14:44:16;;;;;;;3.53;1.73;;;;;;;;;;5065743;28;20489;-85
2023/04/30 14:46:42;;;;;;;3.97;1.57;;;;;;;;;;5064300;28;20427;-82